Time;durP1;ratioP1;P1;durP2;ratioP2;P2;SDS_P1;SDS_P2;PMS_P1;PMS_P2;Temp;Humidity;BMP_temperature;BMP_pressure;BME280_temperature;BME280_humidity;BME280_pressure;Samples;Min_cycle;Max_cycle;Signal;HPM_P1;HPM_P2
2023/11/12 00:01:27;;;;;;;0.40;0.40;;;;;;;4.71;100.00;99508.84;5066435;28;20024;-72
2023/11/12 00:03:55;;;;;;;0.40;0.40;;;;;;;4.71;100.00;99505.41;5048512;28;20021;-72
2023/11/12 00:06:20;;;;;;;0.50;0.50;;;;;;;4.75;100.00;99516.53;5066329;28;20032;-72
2023/11/12 00:08:46;;;;;;;0.47;0.47;;;;;;;4.69;100.00;99502.84;5048134;28;20150;-72
2023/11/12 00:11:11;;;;;;;0.40;0.40;;;;;;;4.74;100.00;99512.28;5048282;28;20024;-72
2023/11/12 00:13:37;;;;;;;0.40;0.40;;;;;;;4.79;100.00;99515.72;5066209;28;20029;-72
2023/11/12 00:16:02;;;;;;;0.40;0.40;;;;;;;4.80;100.00;99520.00;5066483;28;20021;-72
2023/11/12 00:18:28;;;;;;;0.40;0.40;;;;;;;4.75;100.00;99509.69;5066232;28;20079;-72
2023/11/12 00:20:53;;;;;;;0.40;0.40;;;;;;;4.79;100.00;99516.56;5048039;28;20043;-72
2023/11/12 00:23:23;;;;;;;0.40;0.40;;;;;;;4.78;100.00;99513.97;5066336;28;20034;-72
2023/11/12 00:25:49;;;;;;;0.40;0.40;;;;;;;4.78;100.00;99521.69;5048097;28;20461;-71
2023/11/12 00:28:14;;;;;;;0.40;0.40;;;;;;;4.78;100.00;99514.84;5065724;28;20033;-72
2023/11/12 00:30:40;;;;;;;0.50;0.50;;;;;;;4.80;100.00;99513.16;5047655;28;20435;-72
2023/11/12 00:33:06;;;;;;;0.40;0.40;;;;;;;4.80;100.00;99520.00;5066221;28;20027;-72
2023/11/12 00:35:31;;;;;;;0.40;0.40;;;;;;;4.77;100.00;99513.13;5047706;28;20021;-72
2023/11/12 00:37:57;;;;;;;0.47;0.47;;;;;;;4.82;100.00;99518.28;5065487;28;20029;-71
2023/11/12 00:40:22;;;;;;;0.40;0.40;;;;;;;4.80;100.00;99512.28;5047533;28;20036;-73
2023/11/12 00:42:47;;;;;;;0.40;0.40;;;;;;;4.81;100.00;99508.84;5065405;28;20021;-71
2023/11/12 00:45:13;;;;;;;0.40;0.40;;;;;;;4.83;100.00;99514.84;5047651;28;20040;-72
2023/11/12 00:47:38;;;;;;;0.40;0.40;;;;;;;4.84;100.00;99506.25;5065421;28;20135;-72
2023/11/12 00:50:04;;;;;;;0.40;0.40;;;;;;;4.92;100.00;99516.59;5065404;28;20082;-72
2023/11/12 00:52:30;;;;;;;0.40;0.40;;;;;;;4.89;100.00;99514.00;5065488;28;20021;-71
2023/11/12 00:54:55;;;;;;;0.40;0.40;;;;;;;4.88;100.00;99513.16;5047379;28;20028;-72
2023/11/12 00:57:22;;;;;;;0.47;0.47;;;;;;;4.93;100.00;99518.28;5065315;28;20021;-72
2023/11/12 00:59:47;;;;;;;0.63;0.63;;;;;;;4.91;100.00;99520.84;5064486;28;20032;-71
2023/11/12 01:02:16;;;;;;;0.40;0.40;;;;;;;4.91;100.00;99517.41;5065439;28;20087;-71
2023/11/12 01:04:41;;;;;;;0.50;0.50;;;;;;;4.89;100.00;99511.44;5065140;28;20084;-71
2023/11/12 01:07:06;;;;;;;0.40;0.40;;;;;;;4.90;100.00;99510.56;5046746;28;20114;-71
2023/11/12 01:09:32;;;;;;;0.40;0.40;;;;;;;4.86;100.00;99502.00;5064982;28;20032;-71
2023/11/12 01:11:57;;;;;;;0.40;0.40;;;;;;;4.84;100.00;99503.69;5065048;28;20051;-71
2023/11/12 01:14:23;;;;;;;0.40;0.40;;;;;;;4.85;100.00;99518.28;5064886;28;20036;-71
2023/11/12 01:16:48;;;;;;;0.47;0.47;;;;;;;4.80;100.00;99509.69;5047133;28;20096;-72
2023/11/12 01:19:14;;;;;;;0.50;0.50;;;;;;;4.80;100.00;99502.00;5064904;28;20024;-72
2023/11/12 01:21:39;;;;;;;0.40;0.40;;;;;;;4.81;100.00;99506.25;5065047;28;20021;-72
2023/11/12 01:24:05;;;;;;;0.40;0.40;;;;;;;4.83;100.00;99509.72;5065107;28;20024;-71
2023/11/12 01:26:31;;;;;;;0.40;0.40;;;;;;;4.84;100.00;99501.13;5064950;28;20084;-71
2023/11/12 01:28:56;;;;;;;0.40;0.40;;;;;;;4.86;100.00;99514.84;5064607;28;20025;-70
2023/11/12 01:31:23;;;;;;;0.40;0.40;;;;;;;4.91;100.00;99512.28;5064606;28;20024;-71
2023/11/12 01:33:48;;;;;;;0.40;0.40;;;;;;;4.94;100.00;99513.16;5064705;28;20129;-71
2023/11/12 01:36:14;;;;;;;0.40;0.40;;;;;;;4.92;100.00;99508.88;5064897;28;20024;-71
2023/11/12 01:38:39;;;;;;;0.40;0.40;;;;;;;4.98;100.00;99518.28;5047006;28;20043;-71
2023/11/12 01:41:04;;;;;;;0.40;0.40;;;;;;;4.96;100.00;99510.56;5064660;28;20025;-72
2023/11/12 01:43:30;;;;;;;0.40;0.40;;;;;;;4.93;100.00;99511.44;5064464;28;20024;-71
2023/11/12 01:45:57;;;;;;;0.40;0.40;;;;;;;4.98;100.00;99523.44;5064600;28;20025;-71
2023/11/12 01:48:23;;;;;;;0.40;0.40;;;;;;;4.99;100.00;99518.28;5064822;28;20197;-71
2023/11/12 01:50:49;;;;;;;0.40;0.40;;;;;;;5.00;100.00;99514.84;5064574;28;20082;-70
2023/11/12 01:53:16;;;;;;;0.40;0.40;;;;;;;5.03;100.00;99516.59;5064745;28;20021;-71
2023/11/12 01:55:44;;;;;;;0.40;0.40;;;;;;;5.03;100.00;99511.44;5064382;28;20083;-71
2023/11/12 01:58:10;;;;;;;0.40;0.40;;;;;;;5.08;100.00;99514.84;5064176;28;20017;-71
2023/11/12 02:00:39;;;;;;;0.40;0.40;;;;;;;5.10;100.00;99512.31;5064350;28;20033;-71
2023/11/12 02:03:06;;;;;;;0.40;0.40;;;;;;;5.08;100.00;99515.72;5064476;28;20072;-71
2023/11/12 02:05:32;;;;;;;0.40;0.40;;;;;;;5.06;100.00;99512.28;5064418;28;20021;-71
2023/11/12 02:08:00;;;;;;;0.40;0.40;;;;;;;5.12;100.00;99521.72;5046174;28;20056;-71
2023/11/12 02:10:28;;;;;;;0.40;0.40;;;;;;;5.12;100.00;99519.16;5048319;28;20032;-71
2023/11/12 02:12:55;;;;;;;0.40;0.40;;;;;;;5.08;100.00;99510.56;5068593;28;20055;-72
2023/11/12 02:15:20;;;;;;;0.40;0.40;;;;;;;5.11;100.00;99516.56;5068435;28;20105;-71
2023/11/12 02:17:46;;;;;;;0.45;0.45;;;;;;;5.15;100.00;99519.16;5068164;28;20020;-72
2023/11/12 02:20:16;;;;;;;0.40;0.40;;;;;;;5.15;100.00;99520.84;5067982;28;20126;-70
2023/11/12 02:22:41;;;;;;;0.40;0.40;;;;;;;5.15;100.00;99511.44;5068270;28;20028;-71
2023/11/12 02:25:07;;;;;;;0.40;0.40;;;;;;;5.20;100.00;99520.00;5067975;28;20025;-71
2023/11/12 02:27:33;;;;;;;0.40;0.40;;;;;;;5.23;100.00;99516.56;5050108;28;20029;-71
2023/11/12 02:29:58;;;;;;;0.40;0.40;;;;;;;5.22;100.00;99517.44;5067640;28;20061;-70
2023/11/12 02:32:32;;;;;;;0.40;0.40;;;;;;;5.20;100.00;99512.28;5068301;28;20020;-71
2023/11/12 02:34:58;;;;;;;0.40;0.40;;;;;;;5.25;100.00;99516.56;5067754;28;20055;-71
2023/11/12 02:37:24;;;;;;;0.40;0.40;;;;;;;5.31;100.00;99514.84;5049830;28;20033;-70
2023/11/12 02:39:49;;;;;;;0.50;0.50;;;;;;;5.29;100.00;99513.97;5066534;28;20025;-71
2023/11/12 02:42:16;;;;;;;0.50;0.50;;;;;;;5.12;100.00;99477.97;5067651;28;20025;-72
2023/11/12 02:44:45;;;;;;;0.40;0.40;;;;;;;5.34;100.00;99513.97;5067487;28;20035;-71
2023/11/12 02:47:10;;;;;;;0.40;0.40;;;;;;;5.29;100.00;99506.25;5067774;28;20087;-71
2023/11/12 02:49:39;;;;;;;0.40;0.40;;;;;;;5.33;100.00;99522.56;5067661;28;20025;-71
2023/11/12 02:52:04;;;;;;;0.40;0.40;;;;;;;5.29;100.00;99510.53;5067619;28;20025;-71
2023/11/12 02:54:30;;;;;;;0.50;0.50;;;;;;;5.33;100.00;99525.13;5049181;28;20119;-71
2023/11/12 02:56:55;;;;;;;0.40;0.40;;;;;;;5.28;100.00;99525.16;5067715;28;20035;-71
2023/11/12 02:59:20;;;;;;;0.43;0.43;;;;;;;5.29;100.00;99525.97;5067299;28;20029;-71
2023/11/12 03:01:46;;;;;;;0.40;0.40;;;;;;;5.26;100.00;99523.41;5067024;28;20052;-71
2023/11/12 03:04:11;;;;;;;0.47;0.47;;;;;;;5.23;100.00;99513.13;5067238;28;20028;-70
2023/11/12 03:06:36;;;;;;;0.40;0.40;;;;;;;5.27;100.00;99520.00;5049213;28;20496;-71
2023/11/12 03:09:05;;;;;;;0.50;0.50;;;;;;;5.24;100.00;99520.84;5049047;28;20052;-70
2023/11/12 03:11:30;;;;;;;0.40;0.40;;;;;;;5.27;100.00;99510.53;5067139;28;20017;-71
2023/11/12 03:13:56;;;;;;;0.40;0.40;;;;;;;5.30;100.00;99515.69;5066982;28;20040;-70
2023/11/12 03:16:23;;;;;;;0.40;0.40;;;;;;;5.35;100.00;99520.84;5049019;28;20055;-70
2023/11/12 03:18:50;;;;;;;0.40;0.40;;;;;;;5.37;100.00;99521.69;5048836;28;20044;-70
2023/11/12 03:21:16;;;;;;;0.40;0.40;;;;;;;5.39;100.00;99525.13;5066195;28;20026;-71
2023/11/12 03:23:41;;;;;;;0.40;0.40;;;;;;;5.42;100.00;99527.69;5066741;28;20029;-71
2023/11/12 03:26:06;;;;;;;0.40;0.40;;;;;;;5.43;100.00;99521.69;5066878;28;20024;-70
2023/11/12 03:28:32;;;;;;;0.98;0.98;;;;;;;5.43;100.00;99524.25;5066822;28;20025;-71
2023/11/12 03:30:57;;;;;;;0.40;0.40;;;;;;;5.48;100.00;99531.13;5066726;28;20036;-70
2023/11/12 03:33:22;;;;;;;0.50;0.50;;;;;;;5.45;100.00;99530.25;5049001;28;20096;-71
2023/11/12 03:35:49;;;;;;;0.43;0.43;;;;;;;5.45;100.00;99532.84;5066704;28;20473;-70
2023/11/12 03:38:15;;;;;;;0.40;0.40;;;;;;;5.41;100.00;99528.56;5066640;28;20021;-71
2023/11/12 03:40:40;;;;;;;5.07;1.83;;;;;;;5.43;100.00;99529.41;5066578;28;20086;-71
2023/11/12 03:43:05;;;;;;;1.02;0.95;;;;;;;5.39;100.00;99525.13;5048393;28;20025;-71
2023/11/12 03:45:31;;;;;;;0.68;0.68;;;;;;;5.45;100.00;99540.56;5048700;28;20032;-71
2023/11/12 03:47:56;;;;;;;0.98;0.95;;;;;;;5.38;100.00;99531.16;5066555;28;20054;-70
2023/11/12 03:50:21;;;;;;;1.17;0.98;;;;;;;5.44;100.00;99535.41;5066450;28;20412;-71
2023/11/12 03:52:48;;;;;;;1.75;0.73;;;;;;;5.48;100.00;99529.38;5066367;28;20033;-71
2023/11/12 03:55:14;;;;;;;0.57;0.57;;;;;;;5.45;100.00;99526.81;5066482;28;20028;-71
2023/11/12 03:57:40;;;;;;;0.40;0.40;;;;;;;5.47;100.00;99522.53;5066529;28;20020;-70
2023/11/12 04:00:07;;;;;;;3.60;0.90;;;;;;;5.50;100.00;99537.13;5066087;28;20087;-71
2023/11/12 04:02:32;;;;;;;0.47;0.47;;;;;;;5.49;100.00;99532.84;5066221;28;20112;-71
2023/11/12 04:04:58;;;;;;;1.27;1.15;;;;;;;5.49;100.00;99530.25;5048267;28;20495;-70
2023/11/12 04:07:23;;;;;;;1.67;1.35;;;;;;;5.51;100.00;99531.97;5066000;28;20049;-71
2023/11/12 04:09:49;;;;;;;1.63;1.50;;;;;;;5.51;100.00;99533.69;5066051;28;20032;-70
2023/11/12 04:12:14;;;;;;;1.30;1.20;;;;;;;5.50;100.00;99534.53;5066069;28;20032;-70
2023/11/12 04:14:39;;;;;;;1.25;0.98;;;;;;;5.49;100.00;99520.81;5065952;28;20060;-71
2023/11/12 04:17:05;;;;;;;1.63;1.45;;;;;;;5.46;100.00;99518.25;5066282;28;20017;-70
2023/11/12 04:19:30;;;;;;;13.70;2.35;;;;;;;5.49;100.00;99527.69;5048022;28;20021;-70
2023/11/12 04:21:55;;;;;;;1.85;1.73;;;;;;;5.53;100.00;99531.97;5065812;28;20047;-70
2023/11/12 04:24:21;;;;;;;1.42;1.33;;;;;;;5.50;100.00;99527.69;5066221;28;20028;-69
2023/11/12 04:26:47;;;;;;;2.50;2.13;;;;;;;5.51;100.00;99531.13;5065789;28;20021;-69
2023/11/12 04:29:13;;;;;;;0.50;0.50;;;;;;;5.50;100.00;99529.38;5047861;28;20024;-70
2023/11/12 04:31:39;;;;;;;2.75;1.60;;;;;;;5.51;100.00;99536.28;5065639;28;20045;-70
2023/11/12 04:34:05;;;;;;;1.48;0.95;;;;;;;5.52;100.00;99525.97;5065064;28;20021;-69
2023/11/12 04:36:30;;;;;;;2.67;1.67;;;;;;;5.51;100.00;99521.66;5066226;28;20075;-69
2023/11/12 04:38:59;;;;;;;0.50;0.50;;;;;;;5.53;100.00;99522.53;5065815;28;20080;-69
2023/11/12 04:41:25;;;;;;;0.90;0.80;;;;;;;5.46;100.00;99518.25;5065620;28;20091;-71
2023/11/12 04:43:51;;;;;;;1.35;1.25;;;;;;;5.38;100.00;99513.13;5065418;28;20027;-69
2023/11/12 04:46:19;;;;;;;0.70;0.70;;;;;;;5.37;100.00;99521.69;5065412;28;20029;-69
2023/11/12 04:48:44;;;;;;;1.55;0.85;;;;;;;5.36;100.00;99521.69;5065472;28;20021;-70
2023/11/12 04:51:10;;;;;;;0.70;0.70;;;;;;;5.35;100.00;99523.44;5047294;28;20112;-70
2023/11/12 04:53:37;;;;;;;1.67;1.58;;;;;;;5.31;100.00;99525.13;5047296;28;20024;-68
2023/11/12 04:56:09;;;;;;;1.40;1.30;;;;;;;5.30;100.00;99525.16;5065496;28;20087;-70
2023/11/12 04:58:34;;;;;;;1.73;1.00;;;;;;;5.30;100.00;99533.69;5065169;28;20031;-71
2023/11/12 05:01:00;;;;;;;1.20;1.20;;;;;;;5.30;100.00;99538.84;5065454;28;20025;-70
2023/11/12 05:03:26;;;;;;;1.50;1.40;;;;;;;5.29;100.00;99541.44;5047474;28;20119;-71
2023/11/12 05:05:51;;;;;;;2.45;1.52;;;;;;;5.26;100.00;99534.56;5065221;28;20189;-70
2023/11/12 05:08:17;;;;;;;1.92;1.83;;;;;;;5.27;100.00;99535.44;5064948;28;20516;-70
2023/11/12 05:10:42;;;;;;;2.55;2.35;;;;;;;5.23;100.00;99544.00;5065252;28;20028;-70
2023/11/12 05:13:08;;;;;;;5.68;1.92;;;;;;;5.24;100.00;99543.16;5064930;28;20377;-69
2023/11/12 05:15:34;;;;;;;2.17;1.98;;;;;;;5.21;100.00;99546.56;5064988;28;20010;-69
2023/11/12 05:18:05;;;;;;;2.30;2.13;;;;;;;5.15;100.00;99544.00;5064849;28;20029;-70
2023/11/12 05:20:32;;;;;;;4.43;1.58;;;;;;;5.08;100.00;99540.56;5047036;28;20017;-69
2023/11/12 05:22:58;;;;;;;1.67;1.58;;;;;;;5.04;100.00;99544.00;5065051;28;20029;-70
2023/11/12 05:25:23;;;;;;;1.75;1.65;;;;;;;5.04;100.00;99549.16;5064974;28;20031;-70
2023/11/12 05:27:48;;;;;;;1.50;1.27;;;;;;;4.98;100.00;99557.75;5064859;28;20032;-70
2023/11/12 05:30:14;;;;;;;3.40;1.17;;;;;;;4.90;100.00;99554.28;5064519;28;20025;-71
2023/11/12 05:32:39;;;;;;;1.42;1.33;;;;;;;4.87;100.00;99562.88;5064852;28;20035;-69
2023/11/12 05:35:04;;;;;;;2.33;1.40;;;;;;;4.81;100.00;99552.56;5046849;28;20491;-70
2023/11/12 05:37:30;;;;;;;2.17;2.00;;;;;;;4.79;100.00;99551.72;5046813;28;20017;-69
2023/11/12 05:39:55;;;;;;;1.20;1.00;;;;;;;4.78;100.00;99552.56;5064530;28;20020;-70
2023/11/12 05:42:20;;;;;;;1.25;1.15;;;;;;;4.73;100.00;99560.25;5064642;28;20028;-70
2023/11/12 05:44:46;;;;;;;1.10;1.10;;;;;;;4.75;100.00;99562.84;5065571;28;20024;-70
2023/11/12 05:47:11;;;;;;;1.13;1.02;;;;;;;4.75;100.00;99562.84;5069020;28;20031;-70
2023/11/12 05:49:36;;;;;;;1.83;1.73;;;;;;;4.66;100.00;99559.41;5050943;28;20461;-70
2023/11/12 05:52:02;;;;;;;2.08;1.83;;;;;;;4.68;100.00;99565.41;5068847;28;20041;-70
2023/11/12 05:54:27;;;;;;;0.40;0.40;;;;;;;4.65;100.00;99575.66;5051021;28;20028;-70
2023/11/12 05:56:54;;;;;;;1.42;1.30;;;;;;;4.61;100.00;99565.38;5050690;28;20017;-69
2023/11/12 05:59:19;;;;;;;1.42;1.27;;;;;;;4.59;100.00;99567.94;5068423;28;20032;-69
2023/11/12 06:01:45;;;;;;;0.85;0.82;;;;;;;4.53;100.00;99562.78;5068601;28;20044;-69
2023/11/12 06:04:10;;;;;;;1.50;1.40;;;;;;;4.53;100.00;99568.81;5068591;28;20047;-70
2023/11/12 06:06:35;;;;;;;1.85;1.33;;;;;;;4.45;100.00;99562.78;5068452;28;20028;-70
2023/11/12 06:09:01;;;;;;;3.05;1.77;;;;;;;4.51;100.00;99565.34;5068469;28;20045;-70
2023/11/12 06:11:26;;;;;;;1.95;1.35;;;;;;;4.50;100.00;99571.38;5050452;28;20172;-70
2023/11/12 06:13:51;;;;;;;0.50;0.50;;;;;;;4.46;100.00;99567.91;5068394;28;20052;-70
2023/11/12 06:16:17;;;;;;;2.17;1.48;;;;;;;4.52;100.00;99581.66;5068350;28;20017;-70
2023/11/12 06:18:43;;;;;;;0.55;0.55;;;;;;;4.47;100.00;99569.63;5068441;28;20429;-70
2023/11/12 06:21:08;;;;;;;1.33;0.98;;;;;;;4.54;100.00;99579.91;5050332;28;20021;-69
2023/11/12 06:23:35;;;;;;;0.75;0.75;;;;;;;4.58;100.00;99581.66;5068257;28;20074;-72
2023/11/12 06:26:00;;;;;;;0.47;0.47;;;;;;;4.54;100.00;99577.34;5050131;28;20088;-72
2023/11/12 06:28:26;;;;;;;1.65;1.55;;;;;;;4.58;100.00;99586.81;5067962;28;20025;-69
2023/11/12 06:30:53;;;;;;;0.77;0.77;;;;;;;4.58;100.00;99586.81;5068350;28;20078;-69
2023/11/12 06:33:19;;;;;;;0.55;0.55;;;;;;;4.57;100.00;99587.66;5068335;28;20025;-69
2023/11/12 06:35:45;;;;;;;0.70;0.70;;;;;;;4.56;100.00;99591.94;5068121;28;20020;-69
2023/11/12 06:38:10;;;;;;;1.25;1.15;;;;;;;4.50;100.00;99580.78;5067807;28;20035;-69
2023/11/12 06:40:35;;;;;;;2.05;1.60;;;;;;;4.55;100.00;99587.63;5049853;28;20078;-69
2023/11/12 06:43:01;;;;;;;0.50;0.50;;;;;;;4.51;100.00;99590.19;5067729;28;20048;-70
2023/11/12 06:45:26;;;;;;;2.45;1.67;;;;;;;4.53;100.00;99599.66;5049696;28;20049;-69
2023/11/12 06:47:51;;;;;;;0.65;0.65;;;;;;;4.53;100.00;99596.22;5067869;28;20342;-69
2023/11/12 06:50:17;;;;;;;1.15;1.10;;;;;;;4.54;100.00;99590.22;5067800;28;20020;-71
2023/11/12 06:52:42;;;;;;;0.88;0.88;;;;;;;4.58;100.00;99600.50;5067708;28;20395;-71
2023/11/12 06:55:08;;;;;;;1.52;1.40;;;;;;;4.55;100.00;99599.66;5067663;28;20071;-71
2023/11/12 06:57:33;;;;;;;1.38;0.95;;;;;;;4.56;100.00;99597.09;5066728;28;20029;-71
2023/11/12 06:59:59;;;;;;;1.63;1.52;;;;;;;4.60;100.00;99597.94;5067344;28;20035;-71
2023/11/12 07:02:24;;;;;;;1.08;1.05;;;;;;;4.58;100.00;99602.22;5067710;28;20075;-71
2023/11/12 07:04:50;;;;;;;0.88;0.88;;;;;;;4.64;100.00;99604.81;5049584;28;20499;-71
2023/11/12 07:07:15;;;;;;;1.52;1.45;;;;;;;4.68;100.00;99609.09;5049192;28;20029;-70
2023/11/12 07:09:41;;;;;;;0.60;0.60;;;;;;;4.65;100.00;99603.97;5049539;28;20021;-70
2023/11/12 07:12:07;;;;;;;0.98;0.88;;;;;;;4.72;100.00;99615.13;5049095;28;20025;-70
2023/11/12 07:14:32;;;;;;;0.50;0.50;;;;;;;4.76;100.00;99611.69;5049252;28;20385;-71
2023/11/12 07:16:57;;;;;;;2.28;1.95;;;;;;;4.77;100.00;99613.44;5067228;28;20021;-70
2023/11/12 07:19:24;;;;;;;1.75;1.20;;;;;;;4.84;100.00;99615.16;5067193;28;20067;-70
2023/11/12 07:21:50;;;;;;;1.63;1.00;;;;;;;4.88;100.00;99615.16;5067200;28;20072;-71
2023/11/12 07:24:17;;;;;;;10.25;1.60;;;;;;;4.94;100.00;99622.88;5049248;28;20413;-70
2023/11/12 07:26:43;;;;;;;4.00;1.10;;;;;;;5.02;100.00;99622.91;5066993;28;20021;-71
2023/11/12 07:29:13;;;;;;;1.20;1.10;;;;;;;5.17;100.00;99633.25;5048960;28;20055;-71
2023/11/12 07:31:39;;;;;;;4.25;2.13;;;;;;;5.45;100.00;99632.38;5066916;28;20025;-70
2023/11/12 07:34:04;;;;;;;0.82;0.77;;;;;;;5.81;100.00;99633.22;5066989;28;20060;-70
2023/11/12 07:36:29;;;;;;;2.38;1.52;;;;;;;6.08;100.00;99635.78;5048821;28;20013;-70
2023/11/12 07:38:54;;;;;;;2.08;1.55;;;;;;;6.32;100.00;99624.56;5066704;28;20027;-69
2023/11/12 07:41:22;;;;;;;1.33;1.23;;;;;;;6.59;100.00;99632.19;5066719;28;20085;-69
2023/11/12 07:43:47;;;;;;;1.73;1.63;;;;;;;6.68;100.00;99633.84;5066408;28;20047;-70
2023/11/12 07:46:13;;;;;;;2.33;1.10;;;;;;;6.84;100.00;99638.94;5066471;28;20025;-71
2023/11/12 07:48:38;;;;;;;2.00;1.90;;;;;;;7.02;100.00;99636.25;5048684;28;20382;-71
2023/11/12 07:51:04;;;;;;;1.67;1.58;;;;;;;7.10;100.00;99633.63;5066685;28;20064;-72
2023/11/12 07:53:29;;;;;;;4.05;2.10;;;;;;;7.24;100.00;99637.81;5048709;28;20462;-70
2023/11/12 07:55:54;;;;;;;1.55;1.08;;;;;;;7.50;100.00;99639.34;5048699;28;20024;-70
2023/11/12 07:58:20;;;;;;;1.92;1.42;;;;;;;7.61;100.00;99640.13;5048075;28;20032;-70
2023/11/12 08:00:46;;;;;;;1.55;1.20;;;;;;;7.66;100.00;99643.53;5066393;28;20029;-71
2023/11/12 08:03:11;;;;;;;0.65;0.65;;;;;;;7.53;100.00;99644.50;5066455;28;20025;-70
2023/11/12 08:05:38;;;;;;;2.03;1.75;;;;;;;7.33;99.83;99648.09;5066410;28;20039;-71
2023/11/12 08:08:03;;;;;;;0.57;0.52;;;;;;;7.19;100.00;99624.94;5048282;28;20139;-71
2023/11/12 08:10:29;;;;;;;2.10;1.90;;;;;;;7.21;99.81;99632.66;5066197;28;20025;-70
2023/11/12 08:12:54;;;;;;;1.80;1.70;;;;;;;7.46;100.00;99648.00;5066287;28;20055;-72
2023/11/12 08:15:19;;;;;;;2.70;1.52;;;;;;;7.81;100.00;99652.84;5048047;28;20021;-70
2023/11/12 08:17:47;;;;;;;5.28;2.25;;;;;;;8.18;100.00;99643.88;5065874;28;20025;-71
2023/11/12 08:20:13;;;;;;;1.27;1.13;;;;;;;8.36;100.00;99654.91;5048098;28;20024;-71
2023/11/12 08:22:38;;;;;;;2.60;1.35;;;;;;;8.49;100.00;99644.41;5066076;28;20377;-70
2023/11/12 08:25:05;;;;;;;2.40;1.98;;;;;;;8.80;100.00;99649.22;5065778;28;20082;-71
2023/11/12 08:27:30;;;;;;;0.82;0.77;;;;;;;9.44;100.00;99644.84;5065784;28;20048;-71
2023/11/12 08:29:56;;;;;;;0.98;0.65;;;;;;;9.92;97.15;99652.66;5047657;28;20502;-71
2023/11/12 08:32:21;;;;;;;5.15;2.15;;;;;;;10.07;92.75;99653.28;5065573;28;20045;-71
2023/11/12 08:34:47;;;;;;;2.67;1.80;;;;;;;10.46;93.06;99651.69;5047778;28;20027;-71
2023/11/12 08:37:13;;;;;;;2.08;1.83;;;;;;;11.15;92.85;99653.69;5047863;28;20021;-71
2023/11/12 08:39:38;;;;;;;0.85;0.70;;;;;;;11.71;89.17;99661.94;5065621;28;20044;-70
2023/11/12 08:42:04;;;;;;;2.15;1.67;;;;;;;11.77;86.88;99664.38;5065426;28;20032;-69
2023/11/12 08:44:29;;;;;;;6.40;1.08;;;;;;;11.78;83.39;99664.34;5065166;28;20021;-70
2023/11/12 08:46:54;;;;;;;1.42;1.33;;;;;;;11.59;81.91;99656.16;5047296;28;20040;-70
2023/11/12 08:49:21;;;;;;;2.83;1.05;;;;;;;11.88;84.48;99661.50;5065645;28;20107;-71
2023/11/12 08:51:46;;;;;;;2.58;1.83;;;;;;;12.01;85.19;99660.28;5065349;28;20028;-73
2023/11/12 08:54:12;;;;;;;3.53;1.73;;;;;;;11.96;85.46;99672.56;5065518;28;20021;-69
2023/11/12 08:56:38;;;;;;;2.97;1.90;;;;;;;12.23;87.26;99674.50;5065429;28;20078;-71
2023/11/12 08:59:03;;;;;;;1.30;1.20;;;;;;;12.69;84.06;99668.88;5065301;28;20035;-71
2023/11/12 09:01:34;;;;;;;2.20;1.85;;;;;;;12.63;84.24;99667.31;5065206;28;20021;-70
2023/11/12 09:03:59;;;;;;;1.98;1.77;;;;;;;12.81;84.53;99671.13;5047418;28;20032;-70
2023/11/12 09:06:25;;;;;;;7.45;1.65;;;;;;;13.51;86.09;99670.78;5047306;28;20021;-70
2023/11/12 09:08:50;;;;;;;2.00;1.60;;;;;;;14.49;86.01;99671.78;5064846;28;20462;-70
2023/11/12 09:11:15;;;;;;;4.13;1.92;;;;;;;15.24;85.22;99667.25;5046918;28;20025;-70
2023/11/12 09:13:42;;;;;;;2.53;1.63;;;;;;;15.88;84.94;99673.44;5065019;28;20039;-69
2023/11/12 09:16:07;;;;;;;1.90;1.60;;;;;;;16.05;81.07;99668.38;5047474;28;20033;-70
2023/11/12 09:18:33;;;;;;;3.03;1.67;;;;;;;16.47;80.04;99668.28;5064830;28;20112;-68
2023/11/12 09:20:59;;;;;;;2.55;1.60;;;;;;;16.41;77.76;99673.78;5064384;28;20057;-67
2023/11/12 09:23:25;;;;;;;1.77;1.30;;;;;;;16.38;77.90;99669.56;5065065;28;20025;-67
2023/11/12 09:25:50;;;;;;;1.17;1.08;;;;;;;16.64;79.16;99674.53;5064895;28;20029;-68
2023/11/12 09:28:16;;;;;;;1.60;1.50;;;;;;;16.72;77.97;99669.78;5046961;28;20445;-71
2023/11/12 09:30:41;;;;;;;3.17;1.60;;;;;;;16.80;79.84;99672.06;5064897;28;20040;-68
2023/11/12 09:33:08;;;;;;;1.88;1.35;;;;;;;16.72;79.12;99668.00;5064554;28;20017;-66
2023/11/12 09:35:33;;;;;;;1.52;1.25;;;;;;;16.36;77.95;99674.00;5064782;28;20028;-64
2023/11/12 09:37:59;;;;;;;2.50;1.80;;;;;;;16.55;78.96;99671.41;5064568;28;20025;-70
2023/11/12 09:40:29;;;;;;;7.55;1.90;;;;;;;16.91;79.58;99671.56;5064551;28;20021;-74
2023/11/12 09:42:55;;;;;;;3.05;1.67;;;;;;;17.33;81.21;99673.06;5046754;28;20094;-74
2023/11/12 09:45:21;;;;;;;1.73;1.40;;;;;;;17.31;80.56;99669.69;5064580;28;20025;-74
2023/11/12 09:47:53;;;;;;;2.10;1.00;;;;;;;17.34;78.45;99669.56;5064814;28;20032;-73
2023/11/12 09:50:23;;;;;;;1.60;1.48;;;;;;;17.68;79.18;99671.44;5064193;28;20029;-73
2023/11/12 09:52:51;;;;;;;1.55;1.27;;;;;;;18.20;79.30;99675.81;5046483;28;20040;-71
2023/11/12 09:55:18;;;;;;;1.60;1.13;;;;;;;18.88;79.73;99672.28;5064436;28;20017;-72
2023/11/12 09:57:43;;;;;;;0.77;0.73;;;;;;;19.11;76.24;99649.13;5046412;28;20428;-72
2023/11/12 10:00:12;;;;;;;1.00;0.90;;;;;;;19.59;76.44;99664.81;5064461;28;20493;-71
2023/11/12 10:02:38;;;;;;;0.77;0.57;;;;;;;19.96;73.47;99669.69;5046439;28;20238;-71
2023/11/12 10:05:10;;;;;;;3.40;1.10;;;;;;;19.60;68.62;99668.31;5046668;28;20505;-72
2023/11/12 10:07:39;;;;;;;1.52;1.13;;;;;;;18.72;68.88;99673.13;5064204;28;20045;-73
2023/11/12 10:10:27;;;;;;;1.15;0.93;;;;;;;18.15;72.54;99671.72;5064784;28;20063;-71
2023/11/12 10:12:56;;;;;;;0.85;0.82;;;;;;;17.46;69.97;99667.22;5064293;28;20017;-72
2023/11/12 10:15:25;;;;;;;1.17;1.08;;;;;;;16.65;70.90;99665.75;5064493;28;20089;-71
2023/11/12 10:17:52;;;;;;;1.50;0.98;;;;;;;16.13;71.48;99669.78;5046453;28;20033;-72
2023/11/12 10:20:25;;;;;;;1.73;0.98;;;;;;;15.59;71.92;99674.56;5046512;28;20024;-70
2023/11/12 10:22:52;;;;;;;1.10;0.90;;;;;;;15.40;72.81;99669.25;5062966;28;20458;-71
2023/11/12 10:25:36;;;;;;;1.15;0.93;;;;;;;15.10;71.88;99670.41;5064252;28;20028;-70
2023/11/12 10:28:09;;;;;;;2.22;1.45;;;;;;;14.95;74.46;99661.41;5064303;28;20029;-72
2023/11/12 10:30:39;;;;;;;1.55;1.23;;;;;;;14.85;74.36;99660.91;5064584;28;20036;-72
2023/11/12 10:33:23;;;;;;;1.55;1.20;;;;;;;14.93;74.81;99662.38;5067721;28;20482;-71
2023/11/12 10:35:49;;;;;;;0.85;0.80;;;;;;;15.04;74.29;99669.78;5068045;28;20459;-73
2023/11/12 10:38:17;;;;;;;1.17;1.08;;;;;;;15.23;75.54;99651.63;5050173;28;20138;-72
2023/11/12 10:41:05;;;;;;;1.23;1.00;;;;;;;15.59;75.71;99665.91;5049691;28;20498;-72
2023/11/12 10:43:31;;;;;;;0.82;0.80;;;;;;;15.77;76.20;99666.03;5049529;28;20501;-71
2023/11/12 10:46:03;;;;;;;1.73;1.10;;;;;;;15.69;74.69;99661.97;5067727;28;20139;-72
2023/11/12 10:48:36;;;;;;;1.52;1.23;;;;;;;15.49;73.09;99668.03;5067708;28;20508;-72
2023/11/12 10:51:10;;;;;;;0.90;0.88;;;;;;;15.18;72.69;99671.88;5067478;28;20056;-72
2023/11/12 10:53:38;;;;;;;1.10;1.00;;;;;;;15.13;74.20;99671.22;5067847;28;20082;-72
2023/11/12 10:56:05;;;;;;;1.88;1.10;;;;;;;15.33;73.45;99671.28;5067458;28;20017;-73
2023/11/12 10:58:31;;;;;;;1.23;1.02;;;;;;;15.19;70.02;99668.34;5067159;28;20494;-72
2023/11/12 11:00:59;;;;;;;0.80;0.80;;;;;;;15.13;71.64;99666.81;5049404;28;20128;-72
2023/11/12 11:03:29;;;;;;;1.40;0.85;;;;;;;15.27;71.45;99666.25;5067447;28;20025;-72
2023/11/12 11:05:55;;;;;;;1.50;0.90;;;;;;;15.66;72.09;99671.69;5049614;28;20043;-73
2023/11/12 11:08:21;;;;;;;2.70;1.75;;;;;;;15.55;69.64;99666.91;5049306;28;20053;-72
2023/11/12 11:10:47;;;;;;;1.13;1.00;;;;;;;14.40;70.83;99672.97;5067472;28;20059;-72
2023/11/12 11:13:13;;;;;;;1.10;0.98;;;;;;;13.51;74.33;99671.63;5049169;28;20025;-73
2023/11/12 11:15:47;;;;;;;1.45;0.95;;;;;;;12.74;76.89;99669.59;5066926;28;20021;-72
2023/11/12 11:18:31;;;;;;;0.95;0.90;;;;;;;11.97;77.73;99673.41;5067274;28;20040;-72
2023/11/12 11:21:02;;;;;;;0.85;0.70;;;;;;;11.32;79.05;99679.31;5066910;28;20021;-71
2023/11/12 11:23:49;;;;;;;2.63;1.70;;;;;;;10.63;80.25;99672.13;5067056;28;20029;-72
2023/11/12 11:26:26;;;;;;;2.97;1.13;;;;;;;10.13;81.82;99671.31;5049125;28;20432;-71
2023/11/12 11:29:04;;;;;;;1.52;0.80;;;;;;;9.57;82.12;99668.84;5048598;28;20087;-71
2023/11/12 11:31:37;;;;;;;1.38;1.02;;;;;;;9.18;84.13;99670.28;5049095;28;20027;-73